Port Said/El Gamil, Egypt
Current Conditions -  °F | °C
As of 3:00 AM on Wednesday 22 Oct 2014 (Local Time) from HEPS Reporting Station
Scattered Clouds Scattered Clouds  
Wind Chill: 72°   Ceiling: Unl
Heat Index: 72°   Visibility: 6mi
Dew Point: 57°   Wind: 0mph
Humidity: 60%   Direction: NA
Pressure: 29.97"   Gusts: NA
Location:  31.28°N, 32.23°E
Report Text: HEPS 220100Z 00000KT 9999 SCT030 22/14 Q1015 NOSIG
Loading
Personal Weather Stations






























Interactive Weather Map
Tropical Storm Tracking
New forecast layout! Learn more

10-Day Weather Forecast

Advertisements
Track Severe Weather on mobile